Time;durP1;ratioP1;P1;durP2;ratioP2;P2;SDS_P1;SDS_P2;PMS_P1;PMS_P2;Temp;Humidity;BMP_temperature;BMP_pressure;BME280_temperature;BME280_humidity;BME280_pressure;Samples;Min_cycle;Max_cycle;Signal;HPM_P1;HPM_P2
2022/01/19 00:01:17;;;;;;;8.33;4.17;;;4.90;99.90;;;;;;5053397;28;20255;-64
2022/01/19 00:03:42;;;;;;;6.53;4.27;;;4.80;99.90;;;;;;5053074;28;20178;-64
2022/01/19 00:06:08;;;;;;;7.37;4.30;;;4.80;99.90;;;;;;5053839;28;20189;-64
2022/01/19 00:08:34;;;;;;;7.70;4.63;;;4.80;99.90;;;;;;5042420;28;20509;-63
2022/01/19 00:11:00;;;;;;;9.33;3.93;;;4.80;99.90;;;;;;5034448;28;20175;-63
2022/01/19 00:13:26;;;;;;;7.37;3.67;;;4.80;99.90;;;;;;5033998;28;20505;-64
2022/01/19 00:15:52;;;;;;;9.07;4.17;;;4.90;99.90;;;;;;5034151;28;20169;-63
2022/01/19 00:18:21;;;;;;;5.93;3.90;;;4.80;99.90;;;;;;5034035;28;20192;-63
2022/01/19 00:20:47;;;;;;;6.37;3.93;;;4.90;99.90;;;;;;5034019;28;20267;-63
2022/01/19 00:23:16;;;;;;;7.50;3.97;;;4.90;99.90;;;;;;5028138;28;20236;-64
2022/01/19 00:25:43;;;;;;;7.27;4.13;;;4.90;99.90;;;;;;5034458;28;20156;-64
2022/01/19 00:28:09;;;;;;;7.13;4.40;;;4.80;99.90;;;;;;5044552;28;20198;-64
2022/01/19 00:30:34;;;;;;;7.53;4.03;;;4.80;99.90;;;;;;5046246;28;20258;-63
2022/01/19 00:33:00;;;;;;;6.33;4.03;;;4.90;99.90;;;;;;5039499;28;20251;-63
2022/01/19 00:35:26;;;;;;;7.13;4.27;;;4.80;99.90;;;;;;5047303;28;20555;-63
2022/01/19 00:37:52;;;;;;;6.47;4.23;;;4.90;99.90;;;;;;5053468;28;20305;-63
2022/01/19 00:40:17;;;;;;;7.43;4.57;;;4.80;99.90;;;;;;5048305;28;20522;-63
2022/01/19 00:42:44;;;;;;;8.63;4.47;;;4.80;99.90;;;;;;5052908;28;20506;-64
2022/01/19 00:45:12;;;;;;;7.40;4.33;;;4.90;99.90;;;;;;5053335;28;20185;-63
2022/01/19 00:47:37;;;;;;;13.93;4.53;;;4.90;99.90;;;;;;5049410;28;20516;-71
2022/01/19 00:50:05;;;;;;;6.20;3.87;;;4.90;99.90;;;;;;5049974;28;20176;-63
2022/01/19 00:52:31;;;;;;;8.40;4.30;;;4.80;99.90;;;;;;5053482;28;20500;-63
2022/01/19 00:54:57;;;;;;;8.87;4.10;;;4.90;99.90;;;;;;5053077;28;20181;-64
2022/01/19 00:57:23;;;;;;;8.97;5.17;;;4.90;99.90;;;;;;5053692;28;20567;-64
2022/01/19 00:59:50;;;;;;;6.83;3.97;;;4.90;99.90;;;;;;5053805;28;20290;-63
2022/01/19 01:02:15;;;;;;;6.20;3.90;;;4.90;99.90;;;;;;5053586;28;20211;-64
2022/01/19 01:04:41;;;;;;;6.33;4.17;;;4.80;99.90;;;;;;5053990;28;20170;-63
2022/01/19 01:07:07;;;;;;;7.40;4.17;;;4.80;99.90;;;;;;5039955;28;20628;-64
2022/01/19 01:09:32;;;;;;;8.10;4.37;;;4.90;99.90;;;;;;5029192;28;20247;-63
2022/01/19 01:12:12;;;;;;;5.30;3.90;;;4.90;99.90;;;;;;5030425;28;20180;-65
2022/01/19 01:20:11;;;;;;;8.13;4.47;;;5.00;99.90;;;;;;5032784;28;20233;-63
2022/01/19 01:22:38;;;;;;;8.53;3.73;;;5.00;99.90;;;;;;5033290;28;20215;-63
2022/01/19 01:25:04;;;;;;;10.07;4.40;;;5.00;99.90;;;;;;5030342;28;20240;-64
2022/01/19 01:27:30;;;;;;;9.47;4.23;;;5.00;99.90;;;;;;5038752;28;20221;-64
2022/01/19 01:29:56;;;;;;;7.57;4.27;;;5.00;99.90;;;;;;5034877;28;20591;-64
2022/01/19 01:32:21;;;;;;;12.00;5.00;;;5.00;99.90;;;;;;5035919;28;20180;-65
2022/01/19 01:34:47;;;;;;;9.27;4.97;;;5.00;99.90;;;;;;5036180;28;20246;-64
2022/01/19 01:37:13;;;;;;;6.40;4.10;;;5.00;99.90;;;;;;5038605;28;20734;-69
2022/01/19 01:39:38;;;;;;;8.87;4.77;;;5.00;99.90;;;;;;5035613;28;20195;-67
2022/01/19 01:42:13;;;;;;;7.20;4.30;;;5.00;99.90;;;;;;5034071;28;20192;-63
2022/01/19 01:44:40;;;;;;;10.00;4.83;;;5.10;99.90;;;;;;5036432;28;20177;-63
2022/01/19 01:47:07;;;;;;;6.10;3.87;;;5.10;99.90;;;;;;5039374;28;20200;-65
2022/01/19 01:55:04;;;;;;;8.23;4.50;;;5.10;99.90;;;;;;5041728;28;20638;-64
2022/01/19 01:57:30;;;;;;;5.03;3.70;;;5.10;99.90;;;;;;5041923;28;20224;-64
2022/01/19 01:59:56;;;;;;;6.67;4.60;;;5.20;99.90;;;;;;5037955;28;20204;-64
2022/01/19 02:02:21;;;;;;;5.87;4.20;;;5.20;99.90;;;;;;5040211;28;20518;-64
2022/01/19 02:04:47;;;;;;;8.43;4.90;;;5.10;99.90;;;;;;5037613;28;20592;-63
2022/01/19 02:09:55;;;;;;;6.53;4.60;;;5.10;99.90;;;;;;5036528;28;20271;-65
2022/01/19 02:25:58;;;;;;;6.60;4.60;;;5.00;99.90;;;;;;5040878;28;20619;-63
2022/01/19 02:42:09;;;;;;;5.43;3.73;;;4.90;99.90;;;;;;5042220;28;20194;-64
2022/01/19 02:46:38;;;;;;;6.83;4.13;;;4.90;99.90;;;;;;5040394;28;20264;-63
2022/01/19 02:49:55;;;;;;;7.60;4.20;;;4.80;99.90;;;;;;5041561;28;20219;-67
2022/01/19 02:52:22;;;;;;;7.20;4.37;;;4.80;99.90;;;;;;5047837;28;20202;-67
2022/01/19 02:54:49;;;;;;;4.70;3.90;;;4.70;99.90;;;;;;5049889;28;20260;-64
2022/01/19 02:57:15;;;;;;;6.77;4.37;;;4.90;99.90;;;;;;5053653;28;20193;-64
2022/01/19 03:10:24;;;;;;;6.43;4.40;;;4.80;99.90;;;;;;5047472;28;20191;-63
2022/01/19 03:12:49;;;;;;;9.10;4.37;;;4.80;99.90;;;;;;5053082;28;20258;-63
2022/01/19 03:15:15;;;;;;;7.77;4.70;;;4.80;99.90;;;;;;5054365;28;20201;-65
2022/01/19 03:17:41;;;;;;;8.83;4.73;;;4.80;99.90;;;;;;5050133;28;20203;-64
2022/01/19 03:20:08;;;;;;;10.50;5.90;;;4.70;99.90;;;;;;5043726;28;20196;-67
2022/01/19 03:22:40;;;;;;;7.93;4.77;;;4.80;99.90;;;;;;5044745;28;20189;-64
2022/01/19 03:25:12;;;;;;;6.77;4.57;;;4.80;99.90;;;;;;5044212;28;20207;-67
2022/01/19 03:27:39;;;;;;;9.90;4.47;;;4.80;99.90;;;;;;5040076;28;20543;-64
2022/01/19 03:30:09;;;;;;;8.73;4.67;;;4.80;99.90;;;;;;5045878;28;20560;-71
2022/01/19 03:32:35;;;;;;;8.70;4.73;;;4.80;99.90;;;;;;5041589;28;20216;-63
2022/01/19 03:35:01;;;;;;;7.83;4.90;;;4.80;99.90;;;;;;5037137;28;20265;-63
2022/01/19 03:37:27;;;;;;;9.03;4.67;;;4.80;99.90;;;;;;5038277;28;20207;-65
2022/01/19 03:39:53;;;;;;;10.17;5.13;;;4.80;99.90;;;;;;5037519;28;20175;-63
2022/01/19 03:42:19;;;;;;;11.33;5.43;;;4.80;99.90;;;;;;5043965;28;20587;-63
2022/01/19 03:44:44;;;;;;;7.73;5.17;;;4.80;99.90;;;;;;5040255;28;20185;-64
2022/01/19 03:47:10;;;;;;;7.83;4.87;;;4.80;99.90;;;;;;5040955;28;20196;-64
2022/01/19 03:49:36;;;;;;;8.97;5.00;;;4.70;99.90;;;;;;5043275;28;20175;-64
2022/01/19 03:52:04;;;;;;;13.73;5.70;;;4.70;99.90;;;;;;5040603;28;20669;-64
2022/01/19 03:54:32;;;;;;;9.37;4.90;;;4.60;99.90;;;;;;5039965;28;20177;-65
2022/01/19 03:56:58;;;;;;;7.40;4.90;;;4.50;99.90;;;;;;5036636;28;20206;-65
2022/01/19 03:59:24;;;;;;;7.57;4.83;;;4.60;99.90;;;;;;5040407;28;20199;-64
2022/01/19 04:01:53;;;;;;;8.97;5.20;;;4.50;99.90;;;;;;5040414;28;20235;-63
2022/01/19 04:09:21;;;;;;;11.00;5.03;;;4.40;99.90;;;;;;5041876;28;20184;-70
2022/01/19 04:11:47;;;;;;;7.23;4.57;;;4.40;99.90;;;;;;5036784;28;20241;-64
2022/01/19 04:14:22;;;;;;;8.10;4.67;;;4.40;99.90;;;;;;5039651;28;20191;-64
2022/01/19 04:16:59;;;;;;;9.37;5.57;;;4.30;99.90;;;;;;5037613;28;20196;-63
2022/01/19 04:19:29;;;;;;;8.47;5.37;;;4.20;99.90;;;;;;5036509;28;20256;-63
2022/01/19 04:21:57;;;;;;;8.33;4.53;;;4.20;99.90;;;;;;5038746;28;20264;-63
2022/01/19 04:24:24;;;;;;;9.87;5.80;;;4.20;99.90;;;;;;5038473;28;20643;-65
2022/01/19 04:29:35;;;;;;;8.90;4.77;;;4.10;99.90;;;;;;5036720;28;20194;-63
2022/01/19 04:32:09;;;;;;;8.57;4.70;;;4.10;99.90;;;;;;5035697;28;20183;-63
2022/01/19 04:34:37;;;;;;;8.00;5.20;;;4.10;99.90;;;;;;5038133;28;20195;-64
2022/01/19 05:01:52;;;;;;;9.80;6.37;;;3.60;99.90;;;;;;5040218;28;20208;-65
2022/01/19 05:09:58;;;;;;;12.53;6.40;;;3.40;99.90;;;;;;5037098;28;20194;-68
2022/01/19 05:15:09;;;;;;;10.93;6.57;;;3.30;99.90;;;;;;5038042;28;20246;-64
2022/01/19 05:17:36;;;;;;;13.27;6.13;;;3.30;99.90;;;;;;5040271;28;20202;-62
2022/01/19 05:20:04;;;;;;;10.33;6.47;;;3.30;99.90;;;;;;5037604;28;20252;-63
2022/01/19 05:22:29;;;;;;;13.60;7.20;;;3.30;99.90;;;;;;5043356;28;20208;-63
2022/01/19 05:24:55;;;;;;;12.93;7.43;;;3.30;99.90;;;;;;5038238;28;20218;-64
2022/01/19 05:27:22;;;;;;;12.03;7.17;;;3.30;99.90;;;;;;5037263;28;20537;-63
2022/01/19 05:29:48;;;;;;;6.30;4.97;;;3.30;99.90;;;;;;5039515;28;20177;-63
2022/01/19 05:32:14;;;;;;;13.67;7.40;;;3.20;99.90;;;;;;5046314;28;20188;-63
2022/01/19 05:34:40;;;;;;;10.50;6.63;;;3.10;99.90;;;;;;5047234;28;20182;-65
2022/01/19 05:37:06;;;;;;;13.27;7.40;;;3.00;99.90;;;;;;5038536;28;20207;-72
2022/01/19 05:39:31;;;;;;;11.47;7.13;;;3.00;99.90;;;;;;5034352;28;20221;-65
2022/01/19 05:41:57;;;;;;;13.67;6.97;;;3.00;99.90;;;;;;5040448;28;20216;-66
2022/01/19 05:44:23;;;;;;;8.67;5.20;;;2.90;99.90;;;;;;5041512;28;20216;-63
2022/01/19 05:46:49;;;;;;;10.43;7.10;;;2.90;99.90;;;;;;5041721;28;20184;-64
2022/01/19 05:49:14;;;;;;;11.60;6.87;;;2.80;99.90;;;;;;5038430;28;20305;-65
2022/01/19 05:51:40;;;;;;;10.03;5.80;;;2.70;99.90;;;;;;5040681;28;20203;-64
2022/01/19 05:54:06;;;;;;;10.70;6.97;;;2.70;99.90;;;;;;5041738;28;20183;-66
2022/01/19 05:56:32;;;;;;;12.93;7.93;;;2.70;99.90;;;;;;5040141;28;20269;-64
2022/01/19 05:58:58;;;;;;;12.47;7.77;;;2.70;99.90;;;;;;5041881;28;20251;-63
2022/01/19 06:01:23;;;;;;;12.63;7.33;;;2.70;99.90;;;;;;5040055;28;20184;-66
2022/01/19 06:03:51;;;;;;;15.80;8.60;;;2.70;99.90;;;;;;5040590;28;20563;-63
2022/01/19 06:06:17;;;;;;;13.50;8.80;;;2.60;99.90;;;;;;5042921;28;20279;-64
2022/01/19 06:08:48;;;;;;;13.10;8.40;;;2.60;99.90;;;;;;5042777;28;20293;-66
2022/01/19 06:11:14;;;;;;;12.47;8.30;;;2.50;99.90;;;;;;5037111;28;20186;-66
2022/01/19 06:13:40;;;;;;;15.37;8.07;;;2.50;99.90;;;;;;5040008;28;20190;-65
2022/01/19 06:16:06;;;;;;;12.40;8.67;;;2.50;99.90;;;;;;5043680;28;20184;-66
2022/01/19 06:18:32;;;;;;;17.83;10.40;;;2.60;99.90;;;;;;5047233;28;20220;-64
2022/01/19 06:20:57;;;;;;;18.70;10.63;;;2.50;99.90;;;;;;5038528;28;20203;-66
2022/01/19 06:23:23;;;;;;;25.70;11.20;;;2.50;99.90;;;;;;5040927;28;20191;-62
2022/01/19 06:25:49;;;;;;;17.77;10.33;;;2.50;99.90;;;;;;5039476;28;20182;-62
2022/01/19 06:28:15;;;;;;;21.47;12.73;;;2.50;99.90;;;;;;5038955;28;20189;-64
2022/01/19 06:30:41;;;;;;;21.93;13.13;;;2.50;99.90;;;;;;5038970;28;20191;-64
2022/01/19 06:33:07;;;;;;;21.50;12.80;;;2.40;99.90;;;;;;5039444;28;20183;-65
2022/01/19 06:35:33;;;;;;;22.13;13.27;;;2.40;99.90;;;;;;5039857;28;20236;-64
2022/01/19 06:37:59;;;;;;;19.57;11.73;;;2.40;99.90;;;;;;5041462;28;20223;-64
2022/01/19 06:40:28;;;;;;;16.93;10.30;;;2.30;99.90;;;;;;5041676;28;20184;-63
2022/01/19 06:42:54;;;;;;;16.77;10.70;;;2.40;99.90;;;;;;5036223;28;20179;-64
2022/01/19 06:45:22;;;;;;;18.43;11.97;;;2.40;99.90;;;;;;5031455;28;20237;-63
2022/01/19 06:47:48;;;;;;;19.27;11.93;;;2.40;99.90;;;;;;5041905;28;20648;-63
2022/01/19 06:50:18;;;;;;;17.07;10.37;;;2.40;99.90;;;;;;5041265;28;20210;-63
2022/01/19 06:52:44;;;;;;;21.10;11.03;;;2.40;99.90;;;;;;5039136;28;20195;-64
2022/01/19 06:55:10;;;;;;;17.80;10.83;;;2.30;99.90;;;;;;5039908;28;20184;-63
2022/01/19 06:57:36;;;;;;;18.10;11.27;;;2.40;99.90;;;;;;5039501;28;20294;-70
2022/01/19 07:00:04;;;;;;;18.20;11.50;;;2.30;99.90;;;;;;5039860;28;20197;-64
2022/01/19 07:02:30;;;;;;;15.23;11.03;;;2.40;99.90;;;;;;5038279;28;20178;-63
2022/01/19 07:04:55;;;;;;;17.67;10.73;;;2.40;99.90;;;;;;5038233;28;20201;-62
2022/01/19 07:07:21;;;;;;;15.13;10.33;;;2.30;99.90;;;;;;5041581;28;20683;-63
2022/01/19 07:09:47;;;;;;;15.67;10.60;;;2.40;99.90;;;;;;5037455;28;20656;-64
2022/01/19 07:12:13;;;;;;;19.07;11.23;;;2.30;99.90;;;;;;5037247;28;20178;-66
2022/01/19 07:14:39;;;;;;;15.70;9.80;;;2.50;99.90;;;;;;5041269;28;20501;-65
2022/01/19 07:17:05;;;;;;;17.07;11.07;;;2.30;99.90;;;;;;5040868;28;20215;-64
2022/01/19 07:19:31;;;;;;;19.23;11.03;;;2.40;99.90;;;;;;5037787;28;20184;-65
2022/01/19 07:21:56;;;;;;;16.57;10.40;;;2.40;99.90;;;;;;5037926;28;20562;-64
2022/01/19 07:24:22;;;;;;;15.37;10.37;;;2.30;99.90;;;;;;5035467;28;20526;-63
2022/01/19 07:26:48;;;;;;;18.00;10.87;;;2.30;99.90;;;;;;5038373;28;20580;-64
2022/01/19 07:29:14;;;;;;;15.10;10.03;;;2.30;99.90;;;;;;5041230;28;20200;-63
2022/01/19 07:31:41;;;;;;;19.17;10.53;;;2.30;99.90;;;;;;5035116;28;20184;-63
2022/01/19 07:34:07;;;;;;;16.97;10.60;;;2.20;99.90;;;;;;5039039;28;20199;-69
2022/01/19 07:36:33;;;;;;;24.40;11.97;;;2.20;99.90;;;;;;5037507;28;20232;-63
2022/01/19 07:38:58;;;;;;;19.33;11.00;;;2.20;99.90;;;;;;5039540;28;20197;-70
2022/01/19 07:41:24;;;;;;;20.77;11.07;;;2.10;99.90;;;;;;5038935;28;20186;-63
2022/01/19 07:43:50;;;;;;;20.43;10.80;;;2.10;99.90;;;;;;5044878;28;20206;-63
2022/01/19 07:46:16;;;;;;;23.00;12.47;;;2.20;99.90;;;;;;5043267;28;20189;-63
2022/01/19 07:48:42;;;;;;;20.20;12.20;;;2.30;99.90;;;;;;5047136;28;20227;-64
2022/01/19 07:51:08;;;;;;;21.63;11.50;;;2.10;99.90;;;;;;5056790;28;20543;-68
2022/01/19 07:53:33;;;;;;;18.90;12.13;;;2.10;99.90;;;;;;5056712;28;20208;-64
2022/01/19 07:55:59;;;;;;;24.33;15.63;;;2.20;99.90;;;;;;5048096;28;20613;-63
2022/01/19 07:58:25;;;;;;;18.70;11.27;;;2.20;99.90;;;;;;5040722;28;20220;-63
2022/01/19 08:00:51;;;;;;;18.23;10.80;;;2.20;99.90;;;;;;5039255;28;20268;-64
2022/01/19 08:03:16;;;;;;;17.63;11.10;;;2.20;99.90;;;;;;5037085;28;20184;-63
2022/01/19 08:05:42;;;;;;;16.70;10.60;;;2.20;99.90;;;;;;5040746;28;20176;-68
2022/01/19 08:08:08;;;;;;;20.00;12.17;;;2.30;99.90;;;;;;5042184;28;20271;-64
2022/01/19 08:10:33;;;;;;;27.87;15.57;;;2.30;99.90;;;;;;5042713;28;20250;-62
2022/01/19 08:13:02;;;;;;;22.27;12.77;;;2.30;99.90;;;;;;5040050;28;20617;-63
2022/01/19 08:15:29;;;;;;;24.20;13.40;;;2.30;99.90;;;;;;5042838;28;20631;-64
2022/01/19 08:17:55;;;;;;;19.87;12.87;;;2.40;99.90;;;;;;5072099;28;20322;-63
2022/01/19 08:20:20;;;;;;;19.67;11.83;;;2.60;99.90;;;;;;5041360;28;20271;-65
2022/01/19 08:22:46;;;;;;;18.23;11.53;;;2.40;99.90;;;;;;5039225;28;20195;-62
2022/01/19 08:25:12;;;;;;;19.43;11.97;;;2.50;99.90;;;;;;5038965;28;20199;-63
2022/01/19 08:27:38;;;;;;;32.93;15.87;;;2.50;99.90;;;;;;5035330;28;20180;-63
2022/01/19 08:30:06;;;;;;;31.67;15.60;;;2.50;99.90;;;;;;5038956;28;20567;-64
2022/01/19 08:32:34;;;;;;;28.03;14.70;;;2.60;99.90;;;;;;5038490;28;22953;-63
2022/01/19 08:35:00;;;;;;;22.50;13.27;;;2.70;99.90;;;;;;5034702;28;20614;-64
2022/01/19 08:37:25;;;;;;;27.07;14.57;;;2.70;99.90;;;;;;5034117;28;20213;-64
2022/01/19 08:39:52;;;;;;;19.57;11.93;;;2.80;99.90;;;;;;5033883;28;20194;-65
2022/01/19 08:42:18;;;;;;;20.20;13.00;;;2.80;99.90;;;;;;5037612;28;20263;-63
2022/01/19 08:44:44;;;;;;;20.73;12.60;;;3.00;99.90;;;;;;5039258;28;20259;-63
2022/01/19 08:47:09;;;;;;;22.67;13.30;;;3.00;99.90;;;;;;5037890;28;20219;-63
2022/01/19 08:49:35;;;;;;;21.40;12.37;;;3.00;99.90;;;;;;5036690;28;20298;-63
2022/01/19 08:52:04;;;;;;;23.33;13.27;;;3.10;99.90;;;;;;5036694;28;20238;-64
2022/01/19 08:54:31;;;;;;;23.97;13.33;;;3.00;99.90;;;;;;5038106;28;20176;-63
2022/01/19 08:56:57;;;;;;;20.40;12.73;;;3.10;99.90;;;;;;5033359;28;20232;-62
2022/01/19 08:59:23;;;;;;;19.40;12.70;;;3.20;99.90;;;;;;5035782;28;20212;-64
2022/01/19 09:01:49;;;;;;;19.73;12.10;;;3.10;99.90;;;;;;5035540;28;20625;-63
2022/01/19 09:04:15;;;;;;;25.03;12.57;;;3.30;99.90;;;;;;5032554;28;20283;-63
2022/01/19 09:06:40;;;;;;;20.37;13.10;;;3.40;99.90;;;;;;5036515;28;20261;-69
2022/01/19 09:09:06;;;;;;;23.27;13.50;;;3.50;99.90;;;;;;5040001;28;20264;-67
2022/01/19 09:11:31;;;;;;;20.30;12.30;;;3.60;99.90;;;;;;5042090;28;20216;-62
2022/01/19 09:14:00;;;;;;;17.70;9.83;;;3.70;99.90;;;;;;5037512;28;20689;-65
2022/01/19 09:16:26;;;;;;;21.60;12.33;;;3.80;99.90;;;;;;5034018;28;20185;-64
2022/01/19 09:18:51;;;;;;;12.97;7.67;;;3.80;99.90;;;;;;5036237;28;20549;-63
2022/01/19 09:21:17;;;;;;;19.00;11.63;;;3.90;99.90;;;;;;5038376;28;20195;-63
2022/01/19 09:23:43;;;;;;;19.60;11.70;;;3.90;99.90;;;;;;5036665;28;20639;-64
2022/01/19 09:26:08;;;;;;;18.20;11.00;;;4.00;99.90;;;;;;5036884;28;20197;-67
2022/01/19 09:28:34;;;;;;;19.23;12.77;;;4.00;99.90;;;;;;5037458;28;20194;-64
2022/01/19 09:31:02;;;;;;;17.47;11.27;;;4.00;99.90;;;;;;5046124;28;20178;-64
2022/01/19 09:33:30;;;;;;;15.47;9.83;;;4.10;99.90;;;;;;5040256;28;20176;-65
2022/01/19 09:38:26;;;;;;;16.97;8.73;;;4.10;99.90;;;;;;5039762;28;20208;-64
2022/01/19 09:40:51;;;;;;;15.83;8.77;;;4.10;99.90;;;;;;5037639;28;20192;-65
2022/01/19 09:43:21;;;;;;;14.70;8.63;;;4.10;99.90;;;;;;5040577;28;20244;-63
2022/01/19 09:45:52;;;;;;;15.63;9.30;;;4.10;99.90;;;;;;5041955;28;20206;-63
2022/01/19 09:48:18;;;;;;;15.97;8.67;;;4.20;99.90;;;;;;5048358;28;20185;-64
2022/01/19 09:50:43;;;;;;;16.37;8.70;;;4.30;99.90;;;;;;5047742;28;20199;-67
2022/01/19 09:53:10;;;;;;;16.37;6.83;;;4.30;99.90;;;;;;5048473;28;20195;-67
2022/01/19 09:55:40;;;;;;;12.10;6.90;;;4.30;99.90;;;;;;5046804;28;20181;-66
2022/01/19 09:58:07;;;;;;;12.90;7.97;;;4.30;99.90;;;;;;5047507;28;20235;-66
2022/01/19 10:00:33;;;;;;;14.20;7.80;;;4.30;99.90;;;;;;5042915;28;20246;-64
2022/01/19 10:03:24;;;;;;;12.67;7.63;;;4.50;99.90;;;;;;5051660;28;20183;-66
2022/01/19 10:05:57;;;;;;;14.33;7.93;;;4.40;99.90;;;;;;5039236;28;20175;-63
2022/01/19 10:08:35;;;;;;;11.43;8.03;;;4.40;99.90;;;;;;5035658;28;20648;-63
2022/01/19 10:17:01;;;;;;;70.00;20.77;;;4.40;99.90;;;;;;5039411;28;20226;-64
2022/01/19 10:19:36;;;;;;;14.30;7.53;;;4.60;99.90;;;;;;5040314;28;20196;-62
2022/01/19 10:22:13;;;;;;;10.33;6.03;;;4.60;99.90;;;;;;5041031;28;20194;-62
2022/01/19 10:24:48;;;;;;;44.73;13.13;;;4.70;99.90;;;;;;5038567;28;20193;-63
2022/01/19 10:27:23;;;;;;;21.50;8.80;;;4.60;99.90;;;;;;5036388;28;20258;-67
2022/01/19 10:29:51;;;;;;;13.30;7.77;;;4.70;99.90;;;;;;5040333;28;20209;-63
2022/01/19 10:32:20;;;;;;;12.67;6.63;;;4.60;99.90;;;;;;5048215;28;20182;-62
2022/01/19 10:34:46;;;;;;;13.17;7.30;;;4.80;99.90;;;;;;5045113;28;20186;-62
2022/01/19 10:37:11;;;;;;;11.83;6.10;;;4.90;99.90;;;;;;5044222;28;20289;-64
2022/01/19 10:39:46;;;;;;;9.37;6.30;;;4.90;99.90;;;;;;5039395;28;20628;-64
2022/01/19 10:42:17;;;;;;;10.03;5.67;;;4.90;99.90;;;;;;5039694;28;20183;-64
2022/01/19 10:44:45;;;;;;;10.13;6.00;;;5.00;99.90;;;;;;5040417;28;20345;-65
2022/01/19 10:47:10;;;;;;;8.70;5.77;;;5.00;99.90;;;;;;5042615;28;20182;-63
2022/01/19 10:49:55;;;;;;;11.23;6.47;;;5.00;99.90;;;;;;5042522;28;20519;-64
2022/01/19 10:52:30;;;;;;;9.00;6.10;;;5.00;99.90;;;;;;5040338;28;20532;-70
2022/01/19 10:54:57;;;;;;;12.00;6.80;;;5.00;99.90;;;;;;5049471;28;20187;-63
2022/01/19 10:57:24;;;;;;;7.87;5.17;;;4.90;99.90;;;;;;5041413;28;20201;-64
2022/01/19 10:59:50;;;;;;;13.17;6.13;;;4.90;99.90;;;;;;5032915;28;20194;-63
2022/01/19 11:02:17;;;;;;;37.07;12.93;;;4.90;99.90;;;;;;5043124;28;20188;-65
2022/01/19 11:04:42;;;;;;;12.73;6.97;;;4.90;99.90;;;;;;5039858;28;20290;-64
2022/01/19 11:07:09;;;;;;;10.53;6.43;;;5.00;99.90;;;;;;5041289;28;20266;-64
2022/01/19 11:09:44;;;;;;;10.83;6.73;;;4.80;99.90;;;;;;5037931;28;20192;-63
2022/01/19 11:12:14;;;;;;;12.83;7.10;;;5.00;99.90;;;;;;5035614;28;20191;-64
2022/01/19 11:14:40;;;;;;;11.80;6.97;;;5.00;99.90;;;;;;5041161;28;20192;-64
2022/01/19 11:17:07;;;;;;;9.30;6.17;;;5.10;99.90;;;;;;5039579;28;20273;-64
2022/01/19 11:19:37;;;;;;;9.87;6.43;;;5.10;99.90;;;;;;5039322;28;20732;-64
2022/01/19 11:22:15;;;;;;;11.13;6.00;;;5.20;99.90;;;;;;5039392;28;20532;-63
2022/01/19 11:24:49;;;;;;;12.67;6.90;;;5.40;99.90;;;;;;5040259;28;20531;-63
2022/01/19 11:27:16;;;;;;;13.03;6.73;;;5.20;99.90;;;;;;5038585;28;20216;-64
2022/01/19 11:29:42;;;;;;;10.27;6.50;;;5.30;99.90;;;;;;5041858;28;20654;-65
2022/01/19 11:32:18;;;;;;;11.07;6.77;;;5.20;99.90;;;;;;5036230;28;20717;-64
2022/01/19 11:34:50;;;;;;;9.80;6.10;;;5.50;99.90;;;;;;5037690;28;20230;-64
2022/01/19 11:37:37;;;;;;;10.53;7.50;;;5.50;99.90;;;;;;5038861;28;20307;-62
2022/01/19 11:40:11;;;;;;;10.97;6.80;;;5.50;99.90;;;;;;5040167;28;20507;-64
2022/01/19 11:42:37;;;;;;;12.40;7.10;;;5.50;99.90;;;;;;5032550;28;20525;-64
2022/01/19 11:45:06;;;;;;;11.23;6.50;;;5.50;99.90;;;;;;5037968;28;20227;-66
2022/01/19 11:47:32;;;;;;;15.17;8.33;;;5.60;99.90;;;;;;5036516;28;20241;-64
2022/01/19 11:50:18;;;;;;;11.73;6.73;;;5.50;99.90;;;;;;5037796;28;20570;-65
2022/01/19 11:52:44;;;;;;;9.73;5.63;;;5.50;99.90;;;;;;5034128;28;20187;-69
2022/01/19 11:55:21;;;;;;;10.53;6.23;;;5.60;99.90;;;;;;5036464;28;20209;-64
2022/01/19 11:57:48;;;;;;;18.83;8.77;;;5.70;99.90;;;;;;5037539;28;20258;-63
2022/01/19 12:00:21;;;;;;;12.60;7.53;;;5.70;99.90;;;;;;5036691;28;20194;-65
2022/01/19 12:02:58;;;;;;;26.90;11.47;;;5.70;99.90;;;;;;5050272;28;20180;-63
2022/01/19 12:05:31;;;;;;;10.97;6.63;;;5.80;99.90;;;;;;5034051;28;20184;-64
2022/01/19 12:08:02;;;;;;;9.67;6.50;;;6.00;99.90;;;;;;5036323;28;20192;-64
2022/01/19 12:10:31;;;;;;;9.97;5.93;;;6.00;99.90;;;;;;5035047;28;20219;-64
2022/01/19 12:16:20;;;;;;;11.13;6.27;;;6.10;99.90;;;;;;5041672;28;20609;-64
2022/01/19 12:18:56;;;;;;;14.23;7.50;;;6.00;99.90;;;;;;5047005;28;20201;-63
2022/01/19 12:21:22;;;;;;;7.17;5.20;;;6.20;99.90;;;;;;5030084;28;20665;-65
2022/01/19 12:23:49;;;;;;;9.80;6.17;;;6.10;99.90;;;;;;5045642;28;20200;-63
2022/01/19 12:26:15;;;;;;;12.33;7.07;;;6.10;99.90;;;;;;5044787;28;20193;-63
2022/01/19 12:28:50;;;;;;;9.13;6.53;;;6.10;99.90;;;;;;5039572;28;20233;-63
2022/01/19 12:31:25;;;;;;;10.57;5.97;;;6.10;99.90;;;;;;5040532;28;20658;-64
2022/01/19 12:34:02;;;;;;;8.80;5.80;;;6.00;99.90;;;;;;5044249;28;20212;-65
2022/01/19 12:36:49;;;;;;;15.43;7.73;;;5.90;99.90;;;;;;5042387;28;20249;-65
2022/01/19 12:39:26;;;;;;;8.33;5.90;;;5.90;99.90;;;;;;5039433;28;20574;-64
2022/01/19 12:41:55;;;;;;;8.63;5.77;;;5.80;99.90;;;;;;5042286;28;20279;-63
2022/01/19 12:44:45;;;;;;;8.30;5.30;;;5.80;99.90;;;;;;5024131;28;20188;-65
2022/01/19 12:47:28;;;;;;;6.83;5.60;;;5.80;99.90;;;;;;5037212;28;20215;-63
2022/01/19 12:50:18;;;;;;;10.83;5.80;;;5.80;99.90;;;;;;5034299;28;20176;-64
2022/01/19 12:53:05;;;;;;;19.97;6.80;;;5.70;99.90;;;;;;5033951;28;20235;-76
2022/01/19 12:55:35;;;;;;;8.07;4.93;;;6.40;99.90;;;;;;5038687;28;20260;-64
2022/01/19 12:58:09;;;;;;;6.63;4.67;;;6.40;99.90;;;;;;5032350;28;20613;-64
2022/01/19 13:00:36;;;;;;;10.07;5.63;;;6.00;99.90;;;;;;5034076;28;20187;-65
2022/01/19 13:03:18;;;;;;;11.17;6.03;;;5.80;99.90;;;;;;5039454;28;20183;-64
2022/01/19 13:06:01;;;;;;;7.73;5.13;;;5.90;99.90;;;;;;5032069;28;20186;-66
2022/01/19 13:08:51;;;;;;;8.53;5.47;;;5.80;99.90;;;;;;5035479;28;20189;-68
2022/01/19 13:11:36;;;;;;;9.87;6.57;;;5.80;99.90;;;;;;5038680;28;20212;-64
2022/01/19 13:14:10;;;;;;;10.27;6.20;;;5.70;99.90;;;;;;5035254;28;20190;-63
2022/01/19 13:16:45;;;;;;;7.77;4.83;;;5.60;99.90;;;;;;5036766;28;20180;-64
2022/01/19 13:19:16;;;;;;;9.77;5.10;;;5.60;99.90;;;;;;5035431;28;20216;-65
2022/01/19 13:21:46;;;;;;;8.27;5.60;;;5.60;99.90;;;;;;5038711;28;20204;-65
2022/01/19 13:24:27;;;;;;;8.03;4.90;;;5.60;99.90;;;;;;5038160;28;20623;-66
2022/01/19 13:26:59;;;;;;;10.73;5.67;;;5.60;99.90;;;;;;5036266;28;20543;-63
2022/01/19 13:29:42;;;;;;;14.87;7.63;;;5.70;99.90;;;;;;5041211;28;20230;-63
2022/01/19 13:32:17;;;;;;;8.90;5.30;;;5.70;99.90;;;;;;5037310;28;20646;-65
2022/01/19 13:35:02;;;;;;;7.47;4.80;;;5.80;99.90;;;;;;5037577;28;20179;-65
2022/01/19 13:37:45;;;;;;;12.53;6.40;;;5.60;99.90;;;;;;5031048;28;20734;-66
2022/01/19 13:40:22;;;;;;;15.27;6.30;;;5.70;99.90;;;;;;5040562;28;20176;-65
2022/01/19 13:42:59;;;;;;;11.53;5.83;;;5.80;99.90;;;;;;5042459;28;20185;-64
2022/01/19 13:45:47;;;;;;;7.43;5.47;;;5.60;99.90;;;;;;5035809;28;22798;-65
2022/01/19 13:48:28;;;;;;;19.20;8.53;;;5.50;99.90;;;;;;5041448;28;20241;-67
2022/01/19 13:50:57;;;;;;;9.27;5.20;;;5.70;99.90;;;;;;5038435;28;20572;-63
2022/01/19 13:53:37;;;;;;;8.63;5.13;;;5.60;99.90;;;;;;5048801;28;20223;-68
2022/01/19 13:56:06;;;;;;;7.30;4.37;;;5.60;99.90;;;;;;5049632;28;20185;-68
2022/01/19 13:58:37;;;;;;;7.30;4.93;;;5.60;99.90;;;;;;5048294;28;20228;-65
2022/01/19 14:01:09;;;;;;;8.50;4.97;;;5.60;99.90;;;;;;5047087;28;20710;-66
2022/01/19 14:03:56;;;;;;;6.00;4.17;;;5.60;99.90;;;;;;5046056;28;20176;-70
2022/01/19 14:06:45;;;;;;;7.60;4.43;;;5.40;99.90;;;;;;5042773;28;20568;-67
2022/01/19 14:09:17;;;;;;;7.07;4.90;;;5.40;99.90;;;;;;5041367;28;20205;-71
2022/01/19 14:11:57;;;;;;;14.03;4.63;;;5.40;99.90;;;;;;5047190;28;20181;-68
2022/01/19 14:14:26;;;;;;;6.37;4.13;;;5.40;99.90;;;;;;5072032;28;20196;-66
2022/01/19 14:16:54;;;;;;;6.60;4.77;;;5.40;99.90;;;;;;5041405;28;20184;-68
2022/01/19 14:19:29;;;;;;;8.80;4.87;;;5.30;99.90;;;;;;5044320;28;20206;-64
2022/01/19 14:22:05;;;;;;;7.93;5.23;;;5.40;99.90;;;;;;5044675;28;20197;-65
2022/01/19 14:24:46;;;;;;;5.27;4.10;;;5.40;99.90;;;;;;5043894;28;20623;-64
2022/01/19 14:27:23;;;;;;;7.03;4.43;;;5.30;99.90;;;;;;5042363;28;20244;-65
2022/01/19 14:29:55;;;;;;;15.60;7.90;;;5.30;99.90;;;;;;5038777;28;20261;-64
2022/01/19 14:32:42;;;;;;;8.07;5.13;;;5.30;99.90;;;;;;5037336;28;20185;-67
2022/01/19 14:35:36;;;;;;;5.60;4.43;;;5.30;99.90;;;;;;5033016;28;20281;-65
2022/01/19 14:38:21;;;;;;;10.10;5.53;;;5.30;99.90;;;;;;5054756;28;20224;-64
2022/01/19 14:40:52;;;;;;;8.70;5.67;;;5.10;99.90;;;;;;5040223;28;20294;-66
2022/01/19 14:43:22;;;;;;;26.67;11.07;;;5.10;99.90;;;;;;5041701;28;20187;-64
2022/01/19 14:45:53;;;;;;;16.57;8.13;;;5.10;99.90;;;;;;5042498;28;20185;-64